sensor_id;sensor_type;location;lat;lon;timestamp;P1;durP1;ratioP1;P2;durP2;ratioP2
10900;SDS011;5503;53.208;10.392;2023-04-02T00:01:03;5.87;;;2.17;;
10900;SDS011;5503;53.208;10.392;2023-04-02T00:06:33;5.70;;;2.50;;
10900;SDS011;5503;53.208;10.392;2023-04-02T00:09:15;7.80;;;2.30;;
10900;SDS011;5503;53.208;10.392;2023-04-02T00:12:00;5.25;;;2.20;;
10900;SDS011;5503;53.208;10.392;2023-04-02T00:14:40;5.97;;;2.07;;
10900;SDS011;5503;53.208;10.392;2023-04-02T00:17:15;4.95;;;2.25;;
10900;SDS011;5503;53.208;10.392;2023-04-02T00:19:44;4.72;;;2.38;;
10900;SDS011;5503;53.208;10.392;2023-04-02T00:22:15;5.60;;;2.05;;
10900;SDS011;5503;53.208;10.392;2023-04-02T00:24:45;8.38;;;2.20;;
10900;SDS011;5503;53.208;10.392;2023-04-02T00:27:16;6.00;;;2.20;;
10900;SDS011;5503;53.208;10.392;2023-04-02T00:29:44;5.97;;;2.08;;
10900;SDS011;5503;53.208;10.392;2023-04-02T00:32:16;5.85;;;2.67;;
10900;SDS011;5503;53.208;10.392;2023-04-02T00:34:46;5.65;;;1.80;;
10900;SDS011;5503;53.208;10.392;2023-04-02T00:37:14;3.53;;;1.60;;
10900;SDS011;5503;53.208;10.392;2023-04-02T00:39:47;5.43;;;1.60;;
10900;SDS011;5503;53.208;10.392;2023-04-02T00:42:17;5.78;;;1.98;;
10900;SDS011;5503;53.208;10.392;2023-04-02T00:44:46;8.05;;;2.00;;
10900;SDS011;5503;53.208;10.392;2023-04-02T00:47:16;10.45;;;2.22;;
10900;SDS011;5503;53.208;10.392;2023-04-02T00:49:47;3.55;;;2.05;;
10900;SDS011;5503;53.208;10.392;2023-04-02T00:52:20;3.97;;;2.20;;
10900;SDS011;5503;53.208;10.392;2023-04-02T00:54:51;4.90;;;1.95;;
10900;SDS011;5503;53.208;10.392;2023-04-02T00:57:24;5.53;;;2.25;;
10900;SDS011;5503;53.208;10.392;2023-04-02T00:59:56;4.30;;;2.17;;
10900;SDS011;5503;53.208;10.392;2023-04-02T01:02:25;6.30;;;2.28;;
10900;SDS011;5503;53.208;10.392;2023-04-02T01:04:56;4.60;;;2.10;;
10900;SDS011;5503;53.208;10.392;2023-04-02T01:07:37;7.05;;;2.03;;
10900;SDS011;5503;53.208;10.392;2023-04-02T01:10:32;6.45;;;1.80;;
10900;SDS011;5503;53.208;10.392;2023-04-02T01:13:15;8.88;;;2.00;;
10900;SDS011;5503;53.208;10.392;2023-04-02T01:15:50;6.30;;;2.60;;
10900;SDS011;5503;53.208;10.392;2023-04-02T01:18:22;4.83;;;1.90;;
10900;SDS011;5503;53.208;10.392;2023-04-02T01:21:08;4.38;;;2.15;;
10900;SDS011;5503;53.208;10.392;2023-04-02T01:23:57;4.93;;;2.17;;
10900;SDS011;5503;53.208;10.392;2023-04-02T01:26:35;4.38;;;1.90;;
10900;SDS011;5503;53.208;10.392;2023-04-02T01:29:13;6.47;;;2.00;;
10900;SDS011;5503;53.208;10.392;2023-04-02T01:31:44;8.40;;;2.00;;
10900;SDS011;5503;53.208;10.392;2023-04-02T01:34:12;4.10;;;1.80;;
10900;SDS011;5503;53.208;10.392;2023-04-02T01:36:42;6.22;;;2.05;;
10900;SDS011;5503;53.208;10.392;2023-04-02T01:39:22;6.75;;;2.28;;
10900;SDS011;5503;53.208;10.392;2023-04-02T01:42:00;4.15;;;2.30;;
10900;SDS011;5503;53.208;10.392;2023-04-02T01:44:34;4.80;;;1.93;;
10900;SDS011;5503;53.208;10.392;2023-04-02T01:47:09;8.88;;;2.35;;
10900;SDS011;5503;53.208;10.392;2023-04-02T01:49:37;6.40;;;2.63;;
10900;SDS011;5503;53.208;10.392;2023-04-02T01:52:05;6.15;;;2.40;;
10900;SDS011;5503;53.208;10.392;2023-04-02T01:54:32;6.30;;;2.47;;
10900;SDS011;5503;53.208;10.392;2023-04-02T01:57:02;6.03;;;2.50;;
10900;SDS011;5503;53.208;10.392;2023-04-02T01:59:29;4.97;;;2.53;;
10900;SDS011;5503;53.208;10.392;2023-04-02T02:01:59;6.88;;;2.42;;
10900;SDS011;5503;53.208;10.392;2023-04-02T02:04:27;8.68;;;2.50;;
10900;SDS011;5503;53.208;10.392;2023-04-02T02:06:55;7.55;;;2.75;;
10900;SDS011;5503;53.208;10.392;2023-04-02T02:09:26;5.30;;;2.00;;
10900;SDS011;5503;53.208;10.392;2023-04-02T02:11:55;6.85;;;2.15;;
10900;SDS011;5503;53.208;10.392;2023-04-02T02:14:23;6.50;;;2.55;;
10900;SDS011;5503;53.208;10.392;2023-04-02T02:16:52;8.57;;;2.58;;
10900;SDS011;5503;53.208;10.392;2023-04-02T02:19:25;6.22;;;2.17;;
10900;SDS011;5503;53.208;10.392;2023-04-02T02:21:55;4.87;;;2.03;;
10900;SDS011;5503;53.208;10.392;2023-04-02T02:24:30;9.65;;;2.40;;
10900;SDS011;5503;53.208;10.392;2023-04-02T02:27:03;6.55;;;2.30;;
10900;SDS011;5503;53.208;10.392;2023-04-02T02:29:41;8.55;;;2.45;;
10900;SDS011;5503;53.208;10.392;2023-04-02T02:32:11;7.15;;;2.40;;
10900;SDS011;5503;53.208;10.392;2023-04-02T02:34:42;7.90;;;2.30;;
10900;SDS011;5503;53.208;10.392;2023-04-02T02:37:16;6.55;;;2.05;;
10900;SDS011;5503;53.208;10.392;2023-04-02T02:39:50;5.47;;;2.38;;
10900;SDS011;5503;53.208;10.392;2023-04-02T02:42:21;5.32;;;1.80;;
10900;SDS011;5503;53.208;10.392;2023-04-02T02:44:53;7.07;;;2.53;;
10900;SDS011;5503;53.208;10.392;2023-04-02T02:47:22;4.23;;;2.00;;
10900;SDS011;5503;53.208;10.392;2023-04-02T02:49:54;13.63;;;2.53;;
10900;SDS011;5503;53.208;10.392;2023-04-02T02:52:24;5.22;;;2.38;;
10900;SDS011;5503;53.208;10.392;2023-04-02T02:54:53;6.43;;;2.40;;
10900;SDS011;5503;53.208;10.392;2023-04-02T02:57:24;6.25;;;2.40;;
10900;SDS011;5503;53.208;10.392;2023-04-02T02:59:53;4.47;;;1.97;;
10900;SDS011;5503;53.208;10.392;2023-04-02T03:02:24;3.50;;;1.77;;
10900;SDS011;5503;53.208;10.392;2023-04-02T03:04:54;4.75;;;2.25;;
10900;SDS011;5503;53.208;10.392;2023-04-02T03:07:23;5.75;;;2.25;;
10900;SDS011;5503;53.208;10.392;2023-04-02T03:09:56;8.32;;;2.13;;
10900;SDS011;5503;53.208;10.392;2023-04-02T03:12:38;6.20;;;2.23;;
10900;SDS011;5503;53.208;10.392;2023-04-02T03:15:17;10.10;;;1.63;;
10900;SDS011;5503;53.208;10.392;2023-04-02T03:17:52;8.90;;;2.25;;
10900;SDS011;5503;53.208;10.392;2023-04-02T03:20:25;5.57;;;2.33;;
10900;SDS011;5503;53.208;10.392;2023-04-02T03:23:01;5.30;;;2.28;;
10900;SDS011;5503;53.208;10.392;2023-04-02T03:25:38;5.57;;;2.23;;
10900;SDS011;5503;53.208;10.392;2023-04-02T03:28:11;5.72;;;2.08;;
10900;SDS011;5503;53.208;10.392;2023-04-02T03:30:43;7.03;;;2.20;;
10900;SDS011;5503;53.208;10.392;2023-04-02T03:33:14;9.00;;;2.47;;
10900;SDS011;5503;53.208;10.392;2023-04-02T03:35:48;3.65;;;2.05;;
10900;SDS011;5503;53.208;10.392;2023-04-02T03:38:23;6.03;;;2.07;;
10900;SDS011;5503;53.208;10.392;2023-04-02T03:40:57;4.47;;;2.10;;
10900;SDS011;5503;53.208;10.392;2023-04-02T03:43:30;5.93;;;2.05;;
10900;SDS011;5503;53.208;10.392;2023-04-02T03:46:02;5.68;;;2.03;;
10900;SDS011;5503;53.208;10.392;2023-04-02T03:48:38;8.18;;;2.30;;
10900;SDS011;5503;53.208;10.392;2023-04-02T03:51:11;5.70;;;1.67;;
10900;SDS011;5503;53.208;10.392;2023-04-02T03:53:43;6.07;;;2.13;;
10900;SDS011;5503;53.208;10.392;2023-04-02T03:56:15;4.53;;;2.20;;
10900;SDS011;5503;53.208;10.392;2023-04-02T03:58:51;3.58;;;1.55;;
10900;SDS011;5503;53.208;10.392;2023-04-02T04:01:26;6.93;;;2.10;;
10900;SDS011;5503;53.208;10.392;2023-04-02T04:04:00;6.23;;;1.90;;
10900;SDS011;5503;53.208;10.392;2023-04-02T04:06:32;5.35;;;2.00;;
10900;SDS011;5503;53.208;10.392;2023-04-02T04:09:05;7.22;;;1.80;;
10900;SDS011;5503;53.208;10.392;2023-04-02T04:11:35;8.05;;;1.92;;
10900;SDS011;5503;53.208;10.392;2023-04-02T04:14:05;5.32;;;2.28;;
10900;SDS011;5503;53.208;10.392;2023-04-02T04:16:40;4.30;;;1.90;;
10900;SDS011;5503;53.208;10.392;2023-04-02T04:19:14;9.38;;;2.33;;
10900;SDS011;5503;53.208;10.392;2023-04-02T04:21:47;5.93;;;2.58;;
10900;SDS011;5503;53.208;10.392;2023-04-02T04:24:22;4.55;;;2.20;;
10900;SDS011;5503;53.208;10.392;2023-04-02T04:26:51;6.45;;;2.30;;
10900;SDS011;5503;53.208;10.392;2023-04-02T04:29:29;4.70;;;2.10;;
10900;SDS011;5503;53.208;10.392;2023-04-02T04:32:11;7.70;;;2.83;;
10900;SDS011;5503;53.208;10.392;2023-04-02T04:34:44;4.43;;;1.88;;
10900;SDS011;5503;53.208;10.392;2023-04-02T04:37:19;5.35;;;2.08;;
10900;SDS011;5503;53.208;10.392;2023-04-02T04:39:52;5.38;;;2.15;;
10900;SDS011;5503;53.208;10.392;2023-04-02T04:42:23;3.70;;;1.67;;
10900;SDS011;5503;53.208;10.392;2023-04-02T04:44:55;4.95;;;1.50;;
10900;SDS011;5503;53.208;10.392;2023-04-02T04:47:28;5.60;;;2.15;;
10900;SDS011;5503;53.208;10.392;2023-04-02T04:50:03;4.25;;;1.90;;
10900;SDS011;5503;53.208;10.392;2023-04-02T04:52:36;12.18;;;2.30;;
10900;SDS011;5503;53.208;10.392;2023-04-02T04:55:16;6.90;;;2.23;;
10900;SDS011;5503;53.208;10.392;2023-04-02T04:57:54;3.30;;;1.45;;
10900;SDS011;5503;53.208;10.392;2023-04-02T05:00:26;6.63;;;2.05;;
10900;SDS011;5503;53.208;10.392;2023-04-02T05:03:09;10.45;;;2.47;;
10900;SDS011;5503;53.208;10.392;2023-04-02T05:05:42;3.35;;;1.85;;
10900;SDS011;5503;53.208;10.392;2023-04-02T05:08:12;6.30;;;1.83;;
10900;SDS011;5503;53.208;10.392;2023-04-02T05:10:43;5.65;;;1.88;;
10900;SDS011;5503;53.208;10.392;2023-04-02T05:13:14;3.90;;;1.60;;
10900;SDS011;5503;53.208;10.392;2023-04-02T05:15:47;4.65;;;1.90;;
10900;SDS011;5503;53.208;10.392;2023-04-02T05:18:20;5.90;;;1.85;;
10900;SDS011;5503;53.208;10.392;2023-04-02T05:20:54;10.53;;;2.00;;
10900;SDS011;5503;53.208;10.392;2023-04-02T05:23:27;4.13;;;1.95;;
10900;SDS011;5503;53.208;10.392;2023-04-02T05:25:58;5.00;;;1.90;;
10900;SDS011;5503;53.208;10.392;2023-04-02T05:28:31;4.72;;;2.13;;
10900;SDS011;5503;53.208;10.392;2023-04-02T05:31:04;3.88;;;2.20;;
10900;SDS011;5503;53.208;10.392;2023-04-02T05:33:36;5.20;;;2.30;;
10900;SDS011;5503;53.208;10.392;2023-04-02T05:36:05;7.65;;;1.70;;
10900;SDS011;5503;53.208;10.392;2023-04-02T05:38:37;3.72;;;1.77;;
10900;SDS011;5503;53.208;10.392;2023-04-02T05:41:13;6.47;;;2.08;;
10900;SDS011;5503;53.208;10.392;2023-04-02T05:43:46;9.20;;;2.50;;
10900;SDS011;5503;53.208;10.392;2023-04-02T05:46:14;4.57;;;1.80;;
10900;SDS011;5503;53.208;10.392;2023-04-02T05:48:43;8.30;;;1.92;;
10900;SDS011;5503;53.208;10.392;2023-04-02T05:51:16;4.20;;;2.05;;
10900;SDS011;5503;53.208;10.392;2023-04-02T05:53:50;7.05;;;2.00;;
10900;SDS011;5503;53.208;10.392;2023-04-02T05:56:20;4.03;;;1.70;;
10900;SDS011;5503;53.208;10.392;2023-04-02T05:58:51;6.43;;;1.83;;
10900;SDS011;5503;53.208;10.392;2023-04-02T06:01:24;5.28;;;1.95;;
10900;SDS011;5503;53.208;10.392;2023-04-02T06:04:02;4.63;;;1.98;;
10900;SDS011;5503;53.208;10.392;2023-04-02T06:09:27;4.10;;;2.00;;
10900;SDS011;5503;53.208;10.392;2023-04-02T06:12:03;4.70;;;1.90;;
10900;SDS011;5503;53.208;10.392;2023-04-02T06:14:39;2.90;;;1.27;;
10900;SDS011;5503;53.208;10.392;2023-04-02T06:17:07;4.68;;;1.73;;
10900;SDS011;5503;53.208;10.392;2023-04-02T06:19:37;5.18;;;1.65;;
10900;SDS011;5503;53.208;10.392;2023-04-02T06:22:09;8.63;;;2.10;;
10900;SDS011;5503;53.208;10.392;2023-04-02T06:24:48;5.10;;;1.60;;
10900;SDS011;5503;53.208;10.392;2023-04-02T06:27:19;3.50;;;1.60;;
10900;SDS011;5503;53.208;10.392;2023-04-02T06:29:49;3.50;;;1.58;;
10900;SDS011;5503;53.208;10.392;2023-04-02T06:32:20;5.22;;;1.92;;
10900;SDS011;5503;53.208;10.392;2023-04-02T06:34:49;4.65;;;1.92;;
10900;SDS011;5503;53.208;10.392;2023-04-02T06:37:20;4.70;;;1.83;;
10900;SDS011;5503;53.208;10.392;2023-04-02T06:39:52;7.07;;;1.90;;
10900;SDS011;5503;53.208;10.392;2023-04-02T06:42:20;3.63;;;1.60;;
10900;SDS011;5503;53.208;10.392;2023-04-02T06:44:50;5.18;;;1.65;;
10900;SDS011;5503;53.208;10.392;2023-04-02T06:47:20;5.55;;;1.80;;
10900;SDS011;5503;53.208;10.392;2023-04-02T06:49:53;4.57;;;1.60;;
10900;SDS011;5503;53.208;10.392;2023-04-02T06:52:27;5.25;;;1.60;;
10900;SDS011;5503;53.208;10.392;2023-04-02T06:54:58;3.45;;;1.70;;
10900;SDS011;5503;53.208;10.392;2023-04-02T06:57:29;9.07;;;1.60;;
10900;SDS011;5503;53.208;10.392;2023-04-02T06:59:59;4.85;;;2.30;;
10900;SDS011;5503;53.208;10.392;2023-04-02T07:02:28;4.33;;;1.83;;
10900;SDS011;5503;53.208;10.392;2023-04-02T07:05:01;4.70;;;1.75;;
10900;SDS011;5503;53.208;10.392;2023-04-02T07:07:29;3.17;;;1.52;;
10900;SDS011;5503;53.208;10.392;2023-04-02T07:09:58;3.85;;;1.52;;
10900;SDS011;5503;53.208;10.392;2023-04-02T07:12:25;6.10;;;2.20;;
10900;SDS011;5503;53.208;10.392;2023-04-02T07:14:53;6.50;;;1.87;;
10900;SDS011;5503;53.208;10.392;2023-04-02T07:17:20;7.38;;;1.70;;
10900;SDS011;5503;53.208;10.392;2023-04-02T07:19:47;4.70;;;1.60;;
10900;SDS011;5503;53.208;10.392;2023-04-02T07:22:15;5.88;;;1.80;;
10900;SDS011;5503;53.208;10.392;2023-04-02T07:24:43;4.22;;;1.83;;
10900;SDS011;5503;53.208;10.392;2023-04-02T07:27:12;5.40;;;1.60;;
10900;SDS011;5503;53.208;10.392;2023-04-02T07:29:40;5.03;;;1.67;;
10900;SDS011;5503;53.208;10.392;2023-04-02T07:32:08;3.72;;;1.42;;
10900;SDS011;5503;53.208;10.392;2023-04-02T07:34:35;3.17;;;1.30;;
10900;SDS011;5503;53.208;10.392;2023-04-02T07:37:03;7.40;;;1.95;;
10900;SDS011;5503;53.208;10.392;2023-04-02T07:39:31;4.80;;;1.53;;
10900;SDS011;5503;53.208;10.392;2023-04-02T07:41:58;5.00;;;1.50;;
10900;SDS011;5503;53.208;10.392;2023-04-02T07:44:28;3.65;;;1.30;;
10900;SDS011;5503;53.208;10.392;2023-04-02T07:46:55;4.05;;;1.55;;
10900;SDS011;5503;53.208;10.392;2023-04-02T07:49:22;7.05;;;2.40;;
10900;SDS011;5503;53.208;10.392;2023-04-02T07:51:50;5.40;;;1.67;;
10900;SDS011;5503;53.208;10.392;2023-04-02T07:54:17;5.55;;;1.67;;
10900;SDS011;5503;53.208;10.392;2023-04-02T07:56:45;6.05;;;1.80;;
10900;SDS011;5503;53.208;10.392;2023-04-02T07:59:12;3.63;;;1.60;;
10900;SDS011;5503;53.208;10.392;2023-04-02T08:01:41;4.75;;;1.98;;
10900;SDS011;5503;53.208;10.392;2023-04-02T08:04:14;5.87;;;1.67;;
10900;SDS011;5503;53.208;10.392;2023-04-02T08:06:43;3.60;;;1.60;;
10900;SDS011;5503;53.208;10.392;2023-04-02T08:09:11;4.40;;;1.20;;
10900;SDS011;5503;53.208;10.392;2023-04-02T08:11:38;5.75;;;1.70;;
10900;SDS011;5503;53.208;10.392;2023-04-02T08:14:06;5.13;;;1.60;;
10900;SDS011;5503;53.208;10.392;2023-04-02T08:16:45;5.27;;;1.53;;
10900;SDS011;5503;53.208;10.392;2023-04-02T08:19:12;4.72;;;1.40;;
10900;SDS011;5503;53.208;10.392;2023-04-02T08:21:40;3.50;;;1.58;;
10900;SDS011;5503;53.208;10.392;2023-04-02T08:24:07;4.97;;;1.73;;
10900;SDS011;5503;53.208;10.392;2023-04-02T08:26:34;4.93;;;1.25;;
10900;SDS011;5503;53.208;10.392;2023-04-02T08:29:02;3.97;;;1.43;;
10900;SDS011;5503;53.208;10.392;2023-04-02T08:31:29;6.40;;;1.30;;
10900;SDS011;5503;53.208;10.392;2023-04-02T08:33:58;4.93;;;1.35;;
10900;SDS011;5503;53.208;10.392;2023-04-02T08:36:26;4.00;;;1.52;;
10900;SDS011;5503;53.208;10.392;2023-04-02T08:38:55;5.85;;;1.70;;
10900;SDS011;5503;53.208;10.392;2023-04-02T08:41:23;4.40;;;1.63;;
10900;SDS011;5503;53.208;10.392;2023-04-02T08:43:59;3.95;;;1.65;;
10900;SDS011;5503;53.208;10.392;2023-04-02T08:46:40;5.97;;;1.83;;
10900;SDS011;5503;53.208;10.392;2023-04-02T08:49:15;5.18;;;1.90;;
10900;SDS011;5503;53.208;10.392;2023-04-02T08:51:47;6.15;;;1.88;;
10900;SDS011;5503;53.208;10.392;2023-04-02T08:54:17;3.67;;;1.63;;
10900;SDS011;5503;53.208;10.392;2023-04-02T08:56:51;5.18;;;1.60;;
10900;SDS011;5503;53.208;10.392;2023-04-02T08:59:23;3.65;;;1.60;;
10900;SDS011;5503;53.208;10.392;2023-04-02T09:01:57;5.50;;;1.50;;
10900;SDS011;5503;53.208;10.392;2023-04-02T09:04:30;4.70;;;1.58;;
10900;SDS011;5503;53.208;10.392;2023-04-02T09:06:58;4.30;;;1.60;;
10900;SDS011;5503;53.208;10.392;2023-04-02T09:09:26;5.50;;;1.60;;
10900;SDS011;5503;53.208;10.392;2023-04-02T09:11:54;4.05;;;1.90;;
10900;SDS011;5503;53.208;10.392;2023-04-02T09:14:25;4.25;;;1.38;;
10900;SDS011;5503;53.208;10.392;2023-04-02T09:17:07;5.72;;;1.77;;
10900;SDS011;5503;53.208;10.392;2023-04-02T09:19:45;4.30;;;1.50;;
10900;SDS011;5503;53.208;10.392;2023-04-02T09:22:19;3.40;;;1.27;;
10900;SDS011;5503;53.208;10.392;2023-04-02T09:24:50;4.25;;;1.75;;
10900;SDS011;5503;53.208;10.392;2023-04-02T09:27:17;4.47;;;1.40;;
10900;SDS011;5503;53.208;10.392;2023-04-02T09:29:46;5.68;;;1.60;;
10900;SDS011;5503;53.208;10.392;2023-04-02T09:32:30;4.43;;;1.50;;
10900;SDS011;5503;53.208;10.392;2023-04-02T09:35:08;5.95;;;1.38;;
10900;SDS011;5503;53.208;10.392;2023-04-02T09:37:39;4.93;;;1.60;;
10900;SDS011;5503;53.208;10.392;2023-04-02T09:43:02;4.07;;;1.60;;
10900;SDS011;5503;53.208;10.392;2023-04-02T09:45:31;3.70;;;1.50;;
10900;SDS011;5503;53.208;10.392;2023-04-02T09:47:58;4.18;;;1.67;;
10900;SDS011;5503;53.208;10.392;2023-04-02T09:50:29;3.88;;;1.63;;
10900;SDS011;5503;53.208;10.392;2023-04-02T09:52:57;2.70;;;1.15;;
10900;SDS011;5503;53.208;10.392;2023-04-02T09:55:24;5.80;;;1.40;;
10900;SDS011;5503;53.208;10.392;2023-04-02T09:58:07;4.87;;;1.60;;
10900;SDS011;5503;53.208;10.392;2023-04-02T10:00:38;3.22;;;1.20;;
10900;SDS011;5503;53.208;10.392;2023-04-02T10:03:18;3.80;;;1.40;;
10900;SDS011;5503;53.208;10.392;2023-04-02T10:06:03;3.30;;;1.40;;
10900;SDS011;5503;53.208;10.392;2023-04-02T10:08:31;2.90;;;1.20;;
10900;SDS011;5503;53.208;10.392;2023-04-02T10:10:59;3.80;;;1.40;;
10900;SDS011;5503;53.208;10.392;2023-04-02T10:13:29;4.75;;;1.67;;
10900;SDS011;5503;53.208;10.392;2023-04-02T10:16:02;7.22;;;1.60;;
10900;SDS011;5503;53.208;10.392;2023-04-02T10:18:35;4.05;;;1.20;;
10900;SDS011;5503;53.208;10.392;2023-04-02T10:21:09;3.13;;;1.30;;
10900;SDS011;5503;53.208;10.392;2023-04-02T10:23:39;8.00;;;1.63;;
10900;SDS011;5503;53.208;10.392;2023-04-02T10:26:11;3.30;;;1.30;;
10900;SDS011;5503;53.208;10.392;2023-04-02T10:28:50;4.97;;;1.60;;
10900;SDS011;5503;53.208;10.392;2023-04-02T10:31:30;3.92;;;1.50;;
10900;SDS011;5503;53.208;10.392;2023-04-02T10:34:06;3.45;;;1.40;;
10900;SDS011;5503;53.208;10.392;2023-04-02T10:36:45;6.57;;;1.73;;
10900;SDS011;5503;53.208;10.392;2023-04-02T10:39:15;5.00;;;1.48;;
10900;SDS011;5503;53.208;10.392;2023-04-02T10:41:47;3.42;;;1.60;;
10900;SDS011;5503;53.208;10.392;2023-04-02T10:44:24;3.95;;;1.50;;
10900;SDS011;5503;53.208;10.392;2023-04-02T10:47:00;5.10;;;1.55;;
10900;SDS011;5503;53.208;10.392;2023-04-02T10:49:35;3.70;;;1.50;;
10900;SDS011;5503;53.208;10.392;2023-04-02T10:52:09;4.95;;;1.42;;
10900;SDS011;5503;53.208;10.392;2023-04-02T10:54:45;4.00;;;1.52;;
10900;SDS011;5503;53.208;10.392;2023-04-02T10:57:19;3.15;;;1.30;;
10900;SDS011;5503;53.208;10.392;2023-04-02T10:59:53;3.63;;;1.38;;
10900;SDS011;5503;53.208;10.392;2023-04-02T11:02:28;3.80;;;1.20;;
10900;SDS011;5503;53.208;10.392;2023-04-02T11:05:00;4.60;;;1.35;;
10900;SDS011;5503;53.208;10.392;2023-04-02T11:07:44;3.30;;;1.33;;
10900;SDS011;5503;53.208;10.392;2023-04-02T11:10:19;3.53;;;1.40;;
10900;SDS011;5503;53.208;10.392;2023-04-02T11:12:48;5.50;;;1.40;;
10900;SDS011;5503;53.208;10.392;2023-04-02T11:15:21;4.40;;;1.20;;
10900;SDS011;5503;53.208;10.392;2023-04-02T11:17:48;3.20;;;1.17;;
10900;SDS011;5503;53.208;10.392;2023-04-02T11:23:18;4.95;;;1.33;;
10900;SDS011;5503;53.208;10.392;2023-04-02T11:25:46;4.45;;;1.48;;
10900;SDS011;5503;53.208;10.392;2023-04-02T11:28:18;5.90;;;1.30;;
10900;SDS011;5503;53.208;10.392;2023-04-02T11:30:52;4.70;;;1.50;;
10900;SDS011;5503;53.208;10.392;2023-04-02T11:33:24;4.72;;;1.40;;
10900;SDS011;5503;53.208;10.392;2023-04-02T11:36:07;4.03;;;1.30;;
10900;SDS011;5503;53.208;10.392;2023-04-02T11:39:14;3.00;;;1.20;;
10900;SDS011;5503;53.208;10.392;2023-04-02T11:42:24;4.27;;;1.70;;
10900;SDS011;5503;53.208;10.392;2023-04-02T11:44:54;6.53;;;1.35;;
10900;SDS011;5503;53.208;10.392;2023-04-02T11:47:24;6.47;;;1.75;;
10900;SDS011;5503;53.208;10.392;2023-04-02T11:52:51;4.47;;;1.63;;
10900;SDS011;5503;53.208;10.392;2023-04-02T11:55:22;3.53;;;1.23;;
10900;SDS011;5503;53.208;10.392;2023-04-02T11:58:09;3.05;;;1.30;;
10900;SDS011;5503;53.208;10.392;2023-04-02T12:01:14;3.28;;;1.00;;
10900;SDS011;5503;53.208;10.392;2023-04-02T12:07:31;3.88;;;1.30;;
10900;SDS011;5503;53.208;10.392;2023-04-02T12:10:14;6.90;;;1.30;;
10900;SDS011;5503;53.208;10.392;2023-04-02T12:12:45;3.53;;;1.30;;
10900;SDS011;5503;53.208;10.392;2023-04-02T12:18:10;4.80;;;1.00;;
10900;SDS011;5503;53.208;10.392;2023-04-02T12:20:40;3.03;;;1.08;;
10900;SDS011;5503;53.208;10.392;2023-04-02T12:23:14;4.80;;;1.27;;
10900;SDS011;5503;53.208;10.392;2023-04-02T12:25:45;2.90;;;1.10;;
10900;SDS011;5503;53.208;10.392;2023-04-02T12:28:24;2.95;;;1.10;;
10900;SDS011;5503;53.208;10.392;2023-04-02T12:31:01;3.35;;;1.00;;
10900;SDS011;5503;53.208;10.392;2023-04-02T12:33:30;5.88;;;2.08;;
10900;SDS011;5503;53.208;10.392;2023-04-02T12:36:02;3.80;;;1.20;;
10900;SDS011;5503;53.208;10.392;2023-04-02T12:38:34;4.68;;;1.20;;
10900;SDS011;5503;53.208;10.392;2023-04-02T12:41:18;6.13;;;1.45;;
10900;SDS011;5503;53.208;10.392;2023-04-02T12:43:56;3.35;;;1.20;;
10900;SDS011;5503;53.208;10.392;2023-04-02T12:46:25;5.07;;;1.13;;
10900;SDS011;5503;53.208;10.392;2023-04-02T12:48:53;3.67;;;1.40;;
10900;SDS011;5503;53.208;10.392;2023-04-02T12:51:23;3.35;;;1.30;;
10900;SDS011;5503;53.208;10.392;2023-04-02T12:53:51;3.55;;;1.38;;
10900;SDS011;5503;53.208;10.392;2023-04-02T12:56:19;3.92;;;1.35;;
10900;SDS011;5503;53.208;10.392;2023-04-02T12:58:51;6.43;;;1.52;;
10900;SDS011;5503;53.208;10.392;2023-04-02T13:01:21;3.10;;;1.17;;
10900;SDS011;5503;53.208;10.392;2023-04-02T13:03:58;2.80;;;1.00;;
10900;SDS011;5503;53.208;10.392;2023-04-02T13:06:26;2.90;;;1.10;;
10900;SDS011;5503;53.208;10.392;2023-04-02T13:08:54;3.50;;;1.10;;
10900;SDS011;5503;53.208;10.392;2023-04-02T13:11:22;5.60;;;1.23;;
10900;SDS011;5503;53.208;10.392;2023-04-02T13:14:00;4.80;;;1.33;;
10900;SDS011;5503;53.208;10.392;2023-04-02T13:16:33;3.88;;;1.00;;
10900;SDS011;5503;53.208;10.392;2023-04-02T13:21:47;4.07;;;1.40;;
10900;SDS011;5503;53.208;10.392;2023-04-02T13:24:17;3.40;;;1.20;;
10900;SDS011;5503;53.208;10.392;2023-04-02T13:26:45;3.93;;;1.10;;
10900;SDS011;5503;53.208;10.392;2023-04-02T13:29:24;4.00;;;1.20;;
10900;SDS011;5503;53.208;10.392;2023-04-02T13:31:55;2.85;;;1.08;;
10900;SDS011;5503;53.208;10.392;2023-04-02T13:34:24;5.82;;;1.20;;
10900;SDS011;5503;53.208;10.392;2023-04-02T13:36:51;7.18;;;1.65;;
10900;SDS011;5503;53.208;10.392;2023-04-02T13:39:19;2.90;;;1.00;;
10900;SDS011;5503;53.208;10.392;2023-04-02T13:41:47;4.30;;;1.58;;
10900;SDS011;5503;53.208;10.392;2023-04-02T13:44:20;3.38;;;1.35;;
10900;SDS011;5503;53.208;10.392;2023-04-02T13:46:49;5.00;;;1.60;;
10900;SDS011;5503;53.208;10.392;2023-04-02T13:49:19;4.43;;;1.48;;
10900;SDS011;5503;53.208;10.392;2023-04-02T13:51:47;5.40;;;1.40;;
10900;SDS011;5503;53.208;10.392;2023-04-02T13:54:17;3.38;;;1.15;;
10900;SDS011;5503;53.208;10.392;2023-04-02T13:56:48;3.38;;;0.93;;
10900;SDS011;5503;53.208;10.392;2023-04-02T13:59:15;3.60;;;1.00;;
10900;SDS011;5503;53.208;10.392;2023-04-02T14:01:43;2.97;;;1.10;;
10900;SDS011;5503;53.208;10.392;2023-04-02T14:04:12;4.07;;;1.33;;
10900;SDS011;5503;53.208;10.392;2023-04-02T14:07:11;4.82;;;2.13;;
10900;SDS011;5503;53.208;10.392;2023-04-02T14:09:52;5.75;;;1.60;;
10900;SDS011;5503;53.208;10.392;2023-04-02T14:12:29;5.70;;;1.50;;
10900;SDS011;5503;53.208;10.392;2023-04-02T14:18:01;5.77;;;1.80;;
10900;SDS011;5503;53.208;10.392;2023-04-02T14:20:47;3.50;;;1.40;;
10900;SDS011;5503;53.208;10.392;2023-04-02T14:23:26;5.45;;;1.50;;
10900;SDS011;5503;53.208;10.392;2023-04-02T14:26:12;5.28;;;1.48;;
10900;SDS011;5503;53.208;10.392;2023-04-02T14:28:46;3.92;;;1.60;;
10900;SDS011;5503;53.208;10.392;2023-04-02T14:31:24;4.03;;;1.60;;
10900;SDS011;5503;53.208;10.392;2023-04-02T14:33:56;3.10;;;1.20;;
10900;SDS011;5503;53.208;10.392;2023-04-02T14:36:29;5.47;;;1.80;;
10900;SDS011;5503;53.208;10.392;2023-04-02T14:39:08;4.47;;;1.40;;
10900;SDS011;5503;53.208;10.392;2023-04-02T14:41:41;6.55;;;1.60;;
10900;SDS011;5503;53.208;10.392;2023-04-02T14:44:16;5.20;;;1.70;;
10900;SDS011;5503;53.208;10.392;2023-04-02T14:46:47;3.92;;;1.70;;
10900;SDS011;5503;53.208;10.392;2023-04-02T14:49:21;3.63;;;1.60;;
10900;SDS011;5503;53.208;10.392;2023-04-02T14:51:50;5.93;;;1.35;;
10900;SDS011;5503;53.208;10.392;2023-04-02T14:54:27;4.65;;;1.40;;
10900;SDS011;5503;53.208;10.392;2023-04-02T14:56:58;7.47;;;1.93;;
10900;SDS011;5503;53.208;10.392;2023-04-02T14:59:31;5.10;;;1.60;;
10900;SDS011;5503;53.208;10.392;2023-04-02T15:02:02;4.45;;;1.40;;
10900;SDS011;5503;53.208;10.392;2023-04-02T15:04:36;5.80;;;1.40;;
10900;SDS011;5503;53.208;10.392;2023-04-02T15:07:08;3.55;;;1.42;;
10900;SDS011;5503;53.208;10.392;2023-04-02T15:09:41;5.43;;;1.70;;
10900;SDS011;5503;53.208;10.392;2023-04-02T15:12:14;6.35;;;2.28;;
10900;SDS011;5503;53.208;10.392;2023-04-02T15:14:46;4.22;;;1.67;;
10900;SDS011;5503;53.208;10.392;2023-04-02T15:17:15;4.72;;;2.03;;
10900;SDS011;5503;53.208;10.392;2023-04-02T15:19:44;5.15;;;1.73;;
10900;SDS011;5503;53.208;10.392;2023-04-02T15:22:18;6.17;;;1.50;;
10900;SDS011;5503;53.208;10.392;2023-04-02T15:25:00;5.57;;;1.50;;
10900;SDS011;5503;53.208;10.392;2023-04-02T15:27:43;5.53;;;1.80;;
10900;SDS011;5503;53.208;10.392;2023-04-02T15:30:26;17.42;;;2.10;;
10900;SDS011;5503;53.208;10.392;2023-04-02T15:32:56;6.10;;;2.13;;
10900;SDS011;5503;53.208;10.392;2023-04-02T15:35:45;6.57;;;1.83;;
10900;SDS011;5503;53.208;10.392;2023-04-02T15:38:19;4.00;;;1.70;;
10900;SDS011;5503;53.208;10.392;2023-04-02T15:40:53;4.15;;;1.60;;
10900;SDS011;5503;53.208;10.392;2023-04-02T15:43:26;5.20;;;1.67;;
10900;SDS011;5503;53.208;10.392;2023-04-02T15:46:01;4.05;;;1.88;;
10900;SDS011;5503;53.208;10.392;2023-04-02T15:48:48;6.00;;;1.63;;